Time;durP1;ratioP1;P1;durP2;ratioP2;P2;SDS_P1;SDS_P2;PMS_P1;PMS_P2;Temp;Humidity;BMP_temperature;BMP_pressure;BME280_temperature;BME280_humidity;BME280_pressure;Samples;Min_cycle;Max_cycle;Signal;HPM_P1;HPM_P2
2022/12/06 00:00:11;;;;;;;13.77;6.50;;;;;;;-14.87;65.19;98859.91;6179080;28;20205;-67
2022/12/06 00:03:16;;;;;;;12.40;7.25;;;;;;;-14.88;64.80;98854.00;6195981;28;20157;-67
2022/12/06 00:06:22;;;;;;;7.70;3.85;;;;;;;-15.02;65.22;98855.59;6196702;28;20042;-67
2022/12/06 00:09:29;;;;;;;13.45;8.10;;;;;;;-15.04;64.96;98862.19;6195902;28;20161;-67
2022/12/06 00:12:33;;;;;;;7.65;3.97;;;;;;;-15.04;65.58;98857.13;6195743;28;20105;-67
2022/12/06 00:15:37;;;;;;;11.30;7.18;;;;;;;-15.08;65.43;98859.38;6196067;28;20058;-67
2022/12/06 00:18:43;;;;;;;12.65;5.30;;;;;;;-15.07;65.37;98862.00;6195692;28;20054;-66
2022/12/06 00:21:47;;;;;;;16.63;7.20;;;;;;;-15.06;65.49;98853.63;6195528;28;20054;-67
2022/12/06 00:24:48;;;;;;;13.32;6.70;;;;;;;-15.08;65.59;98845.09;6196037;28;20200;-68
2022/12/06 00:27:52;;;;;;;15.68;7.65;;;;;;;-15.10;65.28;98848.28;6196120;28;20061;-67
2022/12/06 00:30:57;;;;;;;;;;;;;;;-15.05;65.28;98849.47;6196286;28;20058;-66
2022/12/06 00:34:00;;;;;;;16.33;7.40;;;;;;;-15.07;65.25;98841.78;6199439;28;19929;-67
2022/12/06 00:37:05;;;;;;;19.38;7.57;;;;;;;-15.07;65.52;98856.94;6200845;28;20066;-67
2022/12/06 00:40:07;;;;;;;19.48;8.10;;;;;;;-15.05;65.36;98855.41;6200663;28;20049;-67
2022/12/06 00:43:14;;;;;;;17.95;8.20;;;;;;;-14.98;65.42;98862.59;6200689;28;20424;-67
2022/12/06 00:46:20;;;;;;;19.02;7.93;;;;;;;-15.02;65.23;98855.59;6199766;28;20052;-67
2022/12/06 00:49:24;;;;;;;17.70;8.45;;;;;;;-15.00;65.61;98856.59;6200234;28;20062;-67
2022/12/06 00:52:27;;;;;;;21.30;9.13;;;;;;;-14.94;65.68;98869.63;6200008;28;20057;-67
2022/12/06 00:55:32;;;;;;;23.30;8.90;;;;;;;-14.92;65.45;98862.13;6200326;28;20047;-68
2022/12/06 00:58:33;;;;;;;25.05;12.10;;;;;;;-14.82;65.48;98874.59;6199540;28;20066;-66
2022/12/06 01:01:37;;;;;;;36.38;17.90;;;;;;;-14.85;65.19;98871.88;6200179;28;20042;-67
2022/12/06 01:04:41;;;;;;;40.00;18.48;;;;;;;-14.87;65.12;98870.88;6200348;28;20501;-67
2022/12/06 01:07:43;;;;;;;43.08;21.35;;;;;;;-14.93;65.53;98860.38;6199628;28;20047;-67
2022/12/06 01:10:53;;;;;;;47.25;20.08;;;;;;;-14.86;65.54;98877.69;6199747;28;20054;-67
2022/12/06 01:13:57;;;;;;;44.67;20.83;;;;;;;-14.84;65.79;98877.78;6199981;28;20432;-68
2022/12/06 01:16:58;;;;;;;43.08;20.08;;;;;;;-14.85;65.44;98874.41;6200199;28;20418;-66
2022/12/06 01:20:03;;;;;;;42.78;16.75;;;;;;;-14.80;65.45;98874.69;6198745;28;20046;-66
2022/12/06 01:23:06;;;;;;;41.00;19.00;;;;;;;-14.72;65.60;98871.00;6198940;28;20046;-66
2022/12/06 01:26:17;;;;;;;35.15;16.13;;;;;;;-14.64;66.06;98874.06;6199711;28;20521;-67
2022/12/06 01:29:19;;;;;;;24.85;11.18;;;;;;;-14.57;65.80;98877.09;6199759;28;20046;-66
2022/12/06 01:32:25;;;;;;;16.85;8.95;;;;;;;-14.54;65.47;98879.81;6199662;28;20038;-66
2022/12/06 01:35:26;;;;;;;19.65;9.40;;;;;;;-14.51;65.65;98879.97;6199424;28;20046;-66
2022/12/06 01:38:29;;;;;;;22.98;9.88;;;;;;;-14.51;65.63;98872.38;6198681;28;20153;-67
2022/12/06 01:41:32;;;;;;;24.23;10.40;;;;;;;-14.53;65.50;98873.97;6199536;28;20121;-67
2022/12/06 01:44:50;;;;;;;11.48;4.85;;;;;;;-14.43;65.33;98879.56;6197752;28;20604;-70
2022/12/06 01:47:56;;;;;;;19.55;10.65;;;;;;;-14.53;65.43;98879.03;6199215;28;20042;-68
2022/12/06 01:50:57;;;;;;;;;;;;;;;-14.50;65.32;98869.06;6198903;28;20054;-67
2022/12/06 01:54:09;;;;;;;23.35;11.68;;;;;;;-14.57;65.41;98874.56;6198673;28;19977;-67
2022/12/06 01:57:15;;;;;;;21.85;10.70;;;;;;;-14.54;65.41;98878.94;6199028;28;20409;-66
2022/12/06 02:00:17;;;;;;;22.67;11.02;;;;;;;-14.64;65.75;98874.06;6198344;28;20046;-67
2022/12/06 02:03:23;;;;;;;18.95;9.55;;;;;;;-14.57;65.41;98874.56;6198898;28;20421;-68
2022/12/06 02:06:31;;;;;;;21.58;9.45;;;;;;;-14.66;65.17;98856.28;6198961;28;20414;-68
2022/12/06 02:09:38;;;;;;;21.90;8.73;;;;;;;-14.53;65.38;98870.56;6198645;28;20421;-68
2022/12/06 02:12:47;;;;;;;16.40;7.70;;;;;;;-14.57;65.54;98882.13;6198591;28;20046;-67
2022/12/06 02:16:32;;;;;;;20.95;9.75;;;;;;;-14.61;65.39;98880.16;6181158;28;20050;-67
2022/12/06 02:19:52;;;;;;;18.08;8.73;;;;;;;-14.60;65.04;98883.59;6197685;28;20407;-67
2022/12/06 02:23:11;;;;;;;13.10;5.55;;;;;;;-14.67;65.57;98874.72;6198253;28;20513;-67
2022/12/06 02:26:24;;;;;;;11.73;5.30;;;;;;;-14.62;65.70;98878.44;6198099;28;20050;-67
2022/12/06 02:29:53;;;;;;;18.85;8.38;;;;;;;-14.68;65.35;98887.28;6198101;28;20099;-68
2022/12/06 02:33:29;;;;;;;14.18;7.93;;;;;;;-14.73;65.40;98879.38;6197951;28;20046;-68
2022/12/06 02:36:55;;;;;;;15.57;7.43;;;;;;;-14.71;65.45;98887.94;6197770;28;20054;-68
2022/12/06 02:40:16;;;;;;;14.82;7.65;;;;;;;-14.73;65.60;98879.38;6197536;28;20046;-66
2022/12/06 02:43:26;;;;;;;12.98;7.03;;;;;;;-14.70;65.58;98884.63;6197426;28;20054;-66
2022/12/06 02:46:35;;;;;;;15.68;7.10;;;;;;;-14.68;65.64;98888.16;6197674;28;20042;-67
2022/12/06 02:49:46;;;;;;;17.00;8.38;;;;;;;-14.74;65.46;98887.75;6197433;28;20039;-67
2022/12/06 02:52:50;;;;;;;12.98;6.82;;;;;;;-14.78;65.57;98891.69;6196930;28;20054;-68
2022/12/06 02:55:52;;;;;;;15.07;10.50;;;;;;;-14.77;65.43;98897.66;6196545;28;20069;-67
2022/12/06 02:58:53;;;;;;;18.35;8.85;;;;;;;-14.75;65.80;98902.00;6197560;28;20045;-68
2022/12/06 03:02:01;;;;;;;24.00;9.90;;;;;;;-14.81;65.60;98890.63;6197137;28;20049;-67
2022/12/06 03:05:20;;;;;;;20.70;8.90;;;;;;;-14.75;65.74;98901.13;6196216;28;20046;-68
2022/12/06 03:08:50;;;;;;;20.92;9.20;;;;;;;-14.72;65.56;98902.25;6197145;28;20054;-68
2022/12/06 03:11:56;;;;;;;17.80;8.27;;;;;;;-14.71;65.90;98903.09;6196990;28;20509;-67
2022/12/06 03:15:08;;;;;;;17.98;8.20;;;;;;;-14.70;65.68;98904.84;6195940;28;20065;-67
2022/12/06 03:18:18;;;;;;;18.60;8.30;;;;;;;-14.72;65.72;98911.44;6178860;28;20413;-67
2022/12/06 03:21:48;;;;;;;21.38;8.95;;;;;;;-14.76;65.51;98899.41;6197013;28;20064;-67
2022/12/06 03:24:51;;;;;;;26.70;15.18;;;;;;;-14.77;65.48;98907.75;6196978;28;20042;-67
2022/12/06 03:27:57;;;;;;;12.82;6.93;;;;;;;-14.82;65.57;98904.03;6197221;28;20049;-66
2022/12/06 03:31:05;;;;;;;16.30;8.45;;;;;;;-14.94;65.47;98892.34;6196813;28;20053;-67
2022/12/06 03:34:16;;;;;;;23.05;8.65;;;;;;;-14.87;65.61;98920.53;6196865;28;20065;-67
2022/12/06 03:37:21;;;;;;;14.32;7.88;;;;;;;-14.84;65.69;98920.75;6196885;28;20042;-68
2022/12/06 03:40:29;;;;;;;18.05;7.93;;;;;;;-14.90;65.76;98925.38;6196696;28;20043;-68
2022/12/06 03:43:35;;;;;;;14.32;7.78;;;;;;;-14.89;65.99;98919.56;6196841;28;20046;-67
2022/12/06 03:46:46;;;;;;;19.20;8.00;;;;;;;-14.87;65.45;98925.59;6196803;28;20050;-68
2022/12/06 03:49:56;;;;;;;8.07;5.03;;;;;;;-14.79;65.56;98910.16;6195762;28;20053;-68
2022/12/06 03:53:01;;;;;;;18.33;8.15;;;;;;;-14.88;65.29;98912.09;6195688;28;20136;-68
2022/12/06 03:56:05;;;;;;;22.50;8.75;;;;;;;-14.97;65.75;98912.34;6196720;28;20042;-67
2022/12/06 03:59:10;;;;;;;15.88;7.55;;;;;;;-14.95;65.27;98918.38;6195426;28;20051;-68
2022/12/06 04:02:13;;;;;;;18.05;7.93;;;;;;;-14.93;65.79;98921.88;6196656;28;20096;-67
2022/12/06 04:05:15;;;;;;;24.58;9.77;;;;;;;-14.97;65.42;98909.84;6195361;28;20046;-66
2022/12/06 04:08:21;;;;;;;14.77;7.75;;;;;;;-14.98;65.73;98920.69;6199036;28;20509;-68
2022/12/06 04:11:25;;;;;;;30.63;10.60;;;;;;;-15.14;65.55;98901.88;6201422;28;20046;-67
2022/12/06 04:14:31;;;;;;;28.17;10.90;;;;;;;-14.98;65.83;98915.63;6201012;28;20086;-67
2022/12/06 04:24:28;;;;;;;44.40;19.52;;;;;;;-14.77;65.55;98943.13;6201013;28;20050;-67
2022/12/06 04:40:59;;;;;;;29.15;15.63;;;;;;;-14.24;65.21;98963.44;6200887;28;20086;-67
2022/12/06 04:44:04;;;;;;;38.13;17.13;;;;;;;-14.14;65.29;98958.22;6200226;28;20050;-68
2022/12/06 04:47:10;;;;;;;42.28;16.58;;;;;;;-14.02;64.86;98961.53;6200618;28;20042;-68
2022/12/06 04:50:11;;;;;;;30.40;16.40;;;;;;;-13.94;65.13;98953.56;6199602;28;20046;-68
2022/12/06 04:53:15;;;;;;;36.03;17.13;;;;;;;-13.76;64.63;98974.97;6200262;28;20082;-67
2022/12/06 04:56:17;;;;;;;35.10;16.17;;;;;;;-13.71;64.52;98973.59;6200336;28;20046;-67
2022/12/06 04:59:21;;;;;;;32.80;16.83;;;;;;;-13.69;64.40;98974.59;6199651;28;20136;-67
2022/12/06 05:02:27;;;;;;;34.97;16.20;;;;;;;-13.63;64.10;98982.56;6182682;28;20525;-67
2022/12/06 05:05:28;;;;;;;34.58;17.42;;;;;;;-13.65;63.85;98968.94;6199420;28;20050;-68
2022/12/06 05:08:34;;;;;;;42.05;19.73;;;;;;;-13.54;64.18;98976.34;6199970;28;20089;-66
2022/12/06 05:11:36;;;;;;;37.70;18.17;;;;;;;-13.50;63.79;98978.25;6199558;28;20589;-67
2022/12/06 05:14:37;;;;;;;32.40;15.60;;;;;;;-13.42;63.68;98983.03;6199739;28;20422;-67
2022/12/06 05:17:41;;;;;;;30.50;15.15;;;;;;;-13.42;63.83;98989.75;6198779;28;20529;-67
2022/12/06 05:20:45;;;;;;;30.92;14.23;;;;;;;-13.37;63.95;98998.53;6199777;28;20057;-67
2022/12/06 05:23:47;;;;;;;18.83;10.27;;;;;;;-13.36;63.81;98980.00;6199844;28;20425;-68
2022/12/06 05:26:50;;;;;;;20.70;11.02;;;;;;;-13.32;63.67;98981.09;6199645;28;20045;-67
2022/12/06 05:29:54;;;;;;;19.17;9.73;;;;;;;-13.28;63.39;98981.34;6199688;28;20421;-68
2022/12/06 05:32:58;;;;;;;;;;;;;;;-13.15;63.22;98993.09;6199901;28;20117;-68
2022/12/06 05:36:04;;;;;;;22.33;10.05;;;;;;;-13.12;63.23;98999.22;6197998;28;19922;-68
2022/12/06 05:39:08;;;;;;;19.05;8.45;;;;;;;-13.06;62.90;98995.31;6198159;28;20046;-67
2022/12/06 05:42:10;;;;;;;17.35;8.10;;;;;;;-12.99;62.92;99002.50;6199276;28;20082;-67
2022/12/06 05:45:14;;;;;;;18.02;8.23;;;;;;;-12.95;62.54;98996.88;6199204;28;20132;-67
2022/12/06 05:48:17;;;;;;;;;;;;;;;-12.86;62.50;98996.53;6199440;28;20536;-67
2022/12/06 05:51:21;;;;;;;19.00;8.45;;;;;;;-12.84;62.24;99000.06;6199067;28;20389;-68
2022/12/06 05:54:22;;;;;;;15.25;8.43;;;;;;;-12.79;62.47;99011.31;6198921;28;20042;-67
2022/12/06 05:57:23;;;;;;;17.17;9.30;;;;;;;-12.73;62.21;99012.59;6198894;28;20050;-67
2022/12/06 06:00:27;;;;;;;12.20;5.43;;;;;;;-12.66;62.12;99007.09;6198481;28;20480;-66
2022/12/06 06:03:37;;;;;;;16.17;9.07;;;;;;;-12.69;62.32;99006.91;6198851;28;20046;-67
2022/12/06 06:06:38;;;;;;;18.40;8.60;;;;;;;-12.60;62.06;99015.84;6198469;28;20047;-67
2022/12/06 06:09:39;;;;;;;24.48;10.70;;;;;;;-12.44;62.03;99018.53;6198488;28;20042;-67
2022/12/06 06:12:44;;;;;;;22.83;12.68;;;;;;;-12.24;61.88;99022.25;6197425;28;20084;-67
2022/12/06 06:15:47;;;;;;;22.75;11.85;;;;;;;-12.09;61.60;99022.25;6197255;28;20116;-67
2022/12/06 06:18:51;;;;;;;20.95;11.25;;;;;;;-11.96;61.47;99017.09;6198140;28;20420;-67
2022/12/06 06:21:55;;;;;;;18.75;9.82;;;;;;;-11.89;61.16;99010.72;6198275;28;20043;-66
2022/12/06 06:25:02;;;;;;;18.90;8.57;;;;;;;-11.60;61.27;99025.06;6198229;28;20054;-67
2022/12/06 06:28:04;;;;;;;21.73;11.77;;;;;;;-11.60;60.90;99019.97;6198163;28;20046;-67
2022/12/06 06:31:08;;;;;;;15.90;9.80;;;;;;;-11.55;60.82;99023.63;6197576;28;20452;-67
2022/12/06 06:34:10;;;;;;;17.42;8.50;;;;;;;-11.41;60.65;99026.94;6198239;28;20053;-67
2022/12/06 06:37:11;;;;;;;27.63;12.75;;;;;;;-11.43;60.49;99021.78;6197848;28;20050;-67
2022/12/06 06:40:12;;;;;;;25.83;10.52;;;;;;;-11.32;60.41;99023.25;6197832;28;20091;-67
2022/12/06 06:43:17;;;;;;;10.82;5.18;;;;;;;-11.18;60.07;99021.47;6197944;28;20082;-67
2022/12/06 06:46:21;;;;;;;25.25;9.55;;;;;;;-11.12;60.28;99024.34;6197698;28;20050;-67
2022/12/06 06:49:26;;;;;;;21.23;9.30;;;;;;;-11.01;59.96;99018.94;6197587;28;20035;-67
2022/12/06 06:52:29;;;;;;;21.40;10.55;;;;;;;-10.77;59.40;99024.50;6179526;28;20568;-67
2022/12/06 06:55:35;;;;;;;22.30;10.85;;;;;;;-10.54;59.03;99024.03;6197565;28;20137;-67
2022/12/06 06:58:37;;;;;;;;;;;;;;;-10.14;58.82;99023.50;6197273;28;20050;-67
2022/12/06 07:01:38;;;;;;;19.60;9.02;;;;;;;-9.94;58.34;99029.59;6196529;28;19925;-67
2022/12/06 07:04:45;;;;;;;23.70;9.05;;;;;;;-9.86;58.16;99024.88;6197622;28;20072;-66
2022/12/06 07:07:48;;;;;;;14.73;7.68;;;;;;;-9.88;57.53;99023.94;6197259;28;20048;-68
2022/12/06 07:10:53;;;;;;;17.85;6.45;;;;;;;-9.86;57.11;99030.84;6197348;28;20042;-68
2022/12/06 07:13:56;;;;;;;19.88;8.77;;;;;;;-9.97;57.80;99020.13;6197203;28;20038;-67
2022/12/06 07:17:02;;;;;;;21.70;10.25;;;;;;;-9.69;57.47;99033.38;6197233;28;20050;-67
2022/12/06 07:20:06;;;;;;;18.05;9.13;;;;;;;-9.49;57.37;99019.91;6197118;28;20058;-67
2022/12/06 07:23:10;;;;;;;20.38;9.07;;;;;;;-9.30;56.74;99022.56;6197156;28;20035;-67
2022/12/06 07:26:14;;;;;;;11.77;7.18;;;;;;;-9.12;55.94;99022.53;6196300;28;20046;-67
2022/12/06 07:29:19;;;;;;;15.82;8.13;;;;;;;-8.93;55.95;99025.97;6196260;28;20489;-67
2022/12/06 07:32:20;;;;;;;21.00;8.80;;;;;;;-8.69;55.44;99022.00;6196998;28;20043;-67
2022/12/06 07:35:24;;;;;;;18.00;10.13;;;;;;;-8.55;55.30;99017.47;6197185;28;20050;-67
2022/12/06 07:38:26;;;;;;;17.08;8.27;;;;;;;-8.48;54.89;99018.66;6196758;28;20042;-66
2022/12/06 07:45:01;;;;;;;21.20;10.35;;;;;;;-8.39;54.17;99029.25;6200836;28;20047;-68
2022/12/06 07:48:05;;;;;;;16.17;8.73;;;;;;;-8.19;54.34;99028.41;6201827;28;20046;-67
2022/12/06 07:51:10;;;;;;;24.75;9.70;;;;;;;-8.13;54.21;99028.66;6201184;28;20454;-68
2022/12/06 07:54:17;;;;;;;22.30;9.40;;;;;;;-8.05;54.12;99026.47;6201817;28;20409;-68
2022/12/06 07:57:21;;;;;;;21.73;9.88;;;;;;;-7.74;53.60;99028.63;6200818;28;20053;-67
2022/12/06 08:00:28;;;;;;;14.50;8.73;;;;;;;-6.84;52.15;99033.94;6201681;28;20046;-67
2022/12/06 08:03:33;;;;;;;18.33;9.27;;;;;;;-5.94;50.10;99032.97;6201134;28;20050;-68
2022/12/06 08:06:37;;;;;;;18.63;8.75;;;;;;;-5.27;49.06;99039.44;6201738;28;20046;-67
2022/12/06 08:09:41;;;;;;;21.63;10.07;;;;;;;-4.00;46.72;99029.53;6201551;28;20042;-67
2022/12/06 08:12:45;;;;;;;24.00;10.27;;;;;;;-2.67;44.45;99019.09;6201507;28;20052;-68
2022/12/06 08:15:47;;;;;;;21.25;11.23;;;;;;;-1.48;42.82;99021.44;6200489;28;20058;-68
2022/12/06 08:18:51;;;;;;;26.52;10.13;;;;;;;0.19;40.69;99025.53;6201006;28;20063;-68
2022/12/06 08:21:55;;;;;;;19.20;9.38;;;;;;;1.72;38.46;99026.75;6201166;28;20050;-67
2022/12/06 08:24:56;;;;;;;18.65;8.55;;;;;;;2.87;36.87;99031.41;6200993;28;20132;-67
2022/12/06 08:28:00;;;;;;;15.60;7.55;;;;;;;3.49;35.94;99025.28;6201044;28;20133;-66
2022/12/06 08:31:14;;;;;;;14.90;7.78;;;;;;;4.15;33.43;99018.97;6200889;28;20062;-67
2022/12/06 08:34:16;;;;;;;17.15;7.38;;;;;;;4.84;34.66;99027.25;6200051;28;20046;-67
2022/12/06 08:37:18;;;;;;;14.30;7.30;;;;;;;5.05;33.95;99034.03;6200825;28;20078;-68
2022/12/06 08:40:40;;;;;;;14.55;7.40;;;;;;;4.83;33.04;99028.13;6199614;28;20513;-67
2022/12/06 08:44:11;;;;;;;23.58;9.38;;;;;;;5.07;34.02;99031.44;6187136;28;20046;-67
2022/12/06 08:47:15;;;;;;;19.92;9.60;;;;;;;5.42;32.85;99031.09;6200393;28;20045;-67
2022/12/06 08:50:17;;;;;;;16.60;8.98;;;;;;;5.35;32.98;99022.47;6200231;28;20481;-67
2022/12/06 08:53:20;;;;;;;21.73;10.18;;;;;;;5.53;32.40;99016.19;6199835;28;20042;-67
2022/12/06 08:56:26;;;;;;;21.40;11.02;;;;;;;5.57;31.80;99017.03;6200124;28;20050;-67
2022/12/06 08:59:32;;;;;;;22.45;12.43;;;;;;;5.72;31.15;99019.50;6199864;28;20244;-67
2022/12/06 09:02:39;;;;;;;25.77;12.75;;;;;;;5.78;31.38;99016.81;6199984;28;20046;-68
2022/12/06 09:05:43;;;;;;;22.52;12.07;;;;;;;5.67;32.42;99008.22;6199885;28;20046;-68
2022/12/06 09:08:47;;;;;;;24.77;12.50;;;;;;;5.41;32.57;99018.94;6199431;28;20054;-68
2022/12/06 09:11:53;;;;;;;27.77;13.23;;;;;;;5.11;34.74;99017.47;6199918;28;20039;-68
2022/12/06 09:14:57;;;;;;;27.30;14.60;;;;;;;5.12;34.99;99019.19;6198789;28;20053;-69
2022/12/06 09:17:59;;;;;;;29.20;14.68;;;;;;;5.12;35.39;99013.97;6199819;28;20081;-69
2022/12/06 09:21:06;;;;;;;33.10;13.95;;;;;;;5.19;34.52;99020.88;6198555;28;20050;-68
2022/12/06 09:24:12;;;;;;;34.20;15.02;;;;;;;5.32;35.33;99017.28;6198910;28;20148;-69
2022/12/06 09:27:19;;;;;;;27.40;14.07;;;;;;;5.56;35.30;99015.31;6199774;28;20526;-69
2022/12/06 09:30:25;;;;;;;29.83;15.93;;;;;;;5.68;36.22;99015.16;6199723;28;20043;-68
2022/12/06 09:33:29;;;;;;;;;;;;;;;5.74;38.21;99029.91;6199704;28;20038;-68
2022/12/06 09:36:33;;;;;;;33.72;17.05;;;;;;;4.75;39.32;99024.69;6199370;28;19922;-71
2022/12/06 09:39:45;;;;;;;42.15;21.73;;;;;;;4.36;38.49;99021.50;6198650;28;20058;-70
2022/12/06 09:43:04;;;;;;;52.50;26.20;;;;;;;4.33;38.77;99024.13;6199156;28;20104;-69
2022/12/06 09:46:20;;;;;;;62.90;34.95;;;;;;;4.22;39.07;99028.50;6199056;28;20047;-69
2022/12/06 09:49:28;;;;;;;52.33;26.50;;;;;;;4.14;40.12;99023.31;6199105;28;20046;-69
2022/12/06 09:53:04;;;;;;;51.78;26.45;;;;;;;4.23;37.19;99023.28;6198962;28;20181;-69
2022/12/06 09:56:37;;;;;;;52.88;24.00;;;;;;;4.19;39.02;99018.06;6198554;28;20054;-68
2022/12/06 09:59:56;;;;;;;40.45;21.80;;;;;;;4.16;37.94;99026.81;6198814;28;20038;-69
2022/12/06 10:03:24;;;;;;;42.90;23.02;;;;;;;1.93;41.18;99019.94;6198016;28;20054;-70
2022/12/06 10:06:39;;;;;;;46.70;24.42;;;;;;;-0.78;44.39;99015.66;6194376;28;20050;-69
2022/12/06 10:09:51;;;;;;;50.03;25.40;;;;;;;-2.72;48.07;99012.13;6198393;28;20058;-68
2022/12/06 10:13:06;;;;;;;48.10;25.10;;;;;;;-3.99;48.22;99015.81;6198667;28;20132;-69
2022/12/06 10:16:45;;;;;;;49.25;22.38;;;;;;;-5.46;49.62;99017.44;6198581;28;20042;-69
2022/12/06 10:19:57;;;;;;;43.40;22.02;;;;;;;-7.27;50.02;99010.94;6194844;28;20484;-68
2022/12/06 10:23:16;;;;;;;40.35;21.70;;;;;;;-8.62;52.05;98998.47;6198337;28;20058;-68
2022/12/06 10:27:01;;;;;;;39.58;19.80;;;;;;;-9.18;53.15;99019.69;6198422;28;20046;-68
2022/12/06 10:30:12;;;;;;;51.03;23.27;;;;;;;-9.57;53.78;99000.84;6198280;28;20528;-68
2022/12/06 10:33:34;;;;;;;44.33;21.67;;;;;;;-9.67;53.92;99025.00;6197896;28;20035;-68
2022/12/06 10:37:08;;;;;;;54.75;25.33;;;;;;;-9.94;53.90;99015.19;6197811;28;20053;-69
2022/12/06 10:40:29;;;;;;;57.42;26.35;;;;;;;-10.14;54.52;99009.91;6197104;28;20050;-68
2022/12/06 10:43:46;;;;;;;57.07;25.33;;;;;;;-10.38;55.06;99014.66;6182052;28;20086;-68
2022/12/06 10:47:05;;;;;;;34.33;17.75;;;;;;;-10.60;55.05;99018.63;6197656;28;20446;-68
2022/12/06 10:50:28;;;;;;;37.13;17.63;;;;;;;-10.81;55.10;99025.09;6197417;28;20043;-68
2022/12/06 10:53:44;;;;;;;34.05;17.70;;;;;;;-11.08;55.48;99022.84;6198015;28;20077;-68
2022/12/06 10:56:51;;;;;;;27.85;13.82;;;;;;;-11.31;55.61;99019.91;6197465;28;20053;-68
2022/12/06 11:00:17;;;;;;;32.33;14.00;;;;;;;-11.53;55.94;99024.59;6197424;28;20046;-68
2022/12/06 11:03:39;;;;;;;24.35;11.65;;;;;;;-11.82;55.97;99015.31;6180446;28;20038;-68
2022/12/06 11:06:47;;;;;;;12.25;6.47;;;;;;;-12.16;55.86;99015.09;6196929;28;20532;-68
2022/12/06 11:09:51;;;;;;;21.80;10.45;;;;;;;-12.52;56.20;99019.72;6196493;28;20159;-68
2022/12/06 11:13:10;;;;;;;19.23;9.60;;;;;;;-12.89;56.36;99022.56;6196833;28;20054;-68
2022/12/06 11:16:21;;;;;;;18.83;10.02;;;;;;;-13.21;57.21;99024.00;6195509;28;20058;-68
2022/12/06 11:19:37;;;;;;;17.45;10.48;;;;;;;-13.47;57.21;99019.88;6195884;28;20054;-68
2022/12/06 11:23:15;;;;;;;23.60;10.35;;;;;;;-13.66;57.71;99010.22;6196994;28;20050;-68
2022/12/06 11:26:43;;;;;;;20.40;10.77;;;;;;;-13.84;57.59;99020.06;6196246;28;20054;-68
2022/12/06 11:29:48;;;;;;;28.95;13.32;;;;;;;-14.02;57.92;99022.25;6196068;28;20062;-68
2022/12/06 11:33:19;;;;;;;30.83;13.52;;;;;;;-14.16;58.54;99033.09;6196854;28;20046;-68
2022/12/06 11:36:50;;;;;;;19.88;11.27;;;;;;;-14.41;58.55;99017.94;6196490;28;20039;-68
2022/12/06 11:40:22;;;;;;;21.67;11.80;;;;;;;-14.53;58.40;99035.75;6196764;28;20053;-68
2022/12/06 11:43:31;;;;;;;32.97;14.10;;;;;;;-14.72;58.71;99032.72;6186611;28;20054;-68
2022/12/06 11:46:33;;;;;;;37.10;16.85;;;;;;;-14.94;59.08;99030.41;6194276;28;20125;-68
2022/12/06 11:49:40;;;;;;;45.13;19.20;;;;;;;-15.12;59.35;99037.56;6195522;28;20047;-68
2022/12/06 11:53:19;;;;;;;47.78;19.98;;;;;;;-15.29;59.71;99033.00;6195765;28;20074;-68
2022/12/06 11:56:29;;;;;;;87.10;31.55;;;;;;;-15.47;59.53;99035.97;6196487;28;20497;-67
2022/12/06 11:59:34;;;;;;;133.93;43.45;;;;;;;-15.67;59.91;99036.19;6195620;28;20480;-67
2022/12/06 12:02:39;;;;;;;138.85;49.35;;;;;;;-15.78;59.84;99032.94;6196276;28;20043;-68
2022/12/06 12:05:46;;;;;;;127.78;48.50;;;;;;;-15.89;59.93;99039.72;6196504;28;20042;-67
2022/12/06 12:09:05;;;;;;;146.13;52.60;;;;;;;-15.97;60.15;99043.31;6196314;28;20046;-67
2022/12/06 12:12:17;;;;;;;142.88;54.95;;;;;;;-16.09;59.75;99034.88;6196390;28;20038;-69
2022/12/06 12:15:21;;;;;;;111.32;42.35;;;;;;;-16.13;59.80;99043.00;6196555;28;20042;-67
2022/12/06 12:18:28;;;;;;;108.22;44.25;;;;;;;-16.23;59.90;99038.03;6195717;28;20137;-68
2022/12/06 12:21:40;;;;;;;96.75;40.88;;;;;;;-16.43;60.13;99047.50;6196043;28;20042;-68
2022/12/06 12:24:49;;;;;;;94.70;34.25;;;;;;;-16.54;60.06;99054.25;6196258;28;20556;-67
2022/12/06 12:27:55;;;;;;;82.28;30.73;;;;;;;-16.67;60.11;99045.66;6196532;28;20633;-68
2022/12/06 12:30:58;;;;;;;71.87;25.50;;;;;;;-16.74;60.25;99059.41;6200184;28;20050;-68
2022/12/06 12:34:23;;;;;;;61.55;21.92;;;;;;;-16.82;60.27;99061.38;6200612;28;20046;-68
2022/12/06 12:37:27;;;;;;;69.07;23.58;;;;;;;-16.93;60.31;99063.84;6200726;28;20057;-69
2022/12/06 12:40:47;;;;;;;63.22;24.05;;;;;;;-17.02;60.57;99058.97;6200494;28;20373;-69
2022/12/06 12:44:17;;;;;;;68.60;26.15;;;;;;;-17.23;60.47;99041.47;6200534;28;20497;-68
2022/12/06 12:47:19;;;;;;;80.97;28.13;;;;;;;-17.21;60.12;99060.09;6189603;28;20042;-68
2022/12/06 12:50:26;;;;;;;70.60;26.23;;;;;;;-17.26;60.36;99068.91;6200349;28;20417;-68
2022/12/06 12:53:32;;;;;;;89.10;33.80;;;;;;;-17.31;60.47;99065.16;6200298;28;20501;-67
2022/12/06 12:56:38;;;;;;;84.93;29.48;;;;;;;-17.42;60.35;99063.44;6199342;28;20133;-68
2022/12/06 12:59:45;;;;;;;82.00;28.13;;;;;;;-17.50;60.31;99072.00;6200370;28;20050;-68
2022/12/06 13:03:02;;;;;;;69.80;26.02;;;;;;;-17.70;60.20;99063.75;6182224;28;20049;-68
2022/12/06 13:06:05;;;;;;;61.67;26.27;;;;;;;-17.80;60.47;99067.94;6199258;28;20057;-68
2022/12/06 13:09:19;;;;;;;61.85;27.85;;;;;;;-17.88;60.40;99069.88;6199811;28;20041;-68
2022/12/06 13:12:33;;;;;;;93.68;42.13;;;;;;;-18.03;60.51;99064.44;6199630;28;20046;-67
2022/12/06 13:15:45;;;;;;;124.65;48.35;;;;;;;-18.07;60.55;99071.63;6199622;28;20050;-68
2022/12/06 13:18:53;;;;;;;169.15;64.20;;;;;;;-18.14;60.64;99071.16;6198929;28;20054;-67
2022/12/06 13:22:00;;;;;;;194.63;71.47;;;;;;;-18.20;60.46;99073.16;6198812;28;20046;-67
2022/12/06 13:25:06;;;;;;;187.68;73.32;;;;;;;-18.24;60.58;99071.13;6198804;28;20150;-68
2022/12/06 13:28:18;;;;;;;163.18;59.30;;;;;;;-18.26;60.65;99064.22;6199316;28;20042;-68
2022/12/06 13:31:27;;;;;;;132.50;49.58;;;;;;;-18.29;61.01;99072.38;6198956;28;20200;-68
2022/12/06 13:34:40;;;;;;;111.90;43.97;;;;;;;-18.31;60.68;99080.53;6198537;28;20053;-68
2022/12/06 13:37:51;;;;;;;99.68;35.45;;;;;;;-18.29;60.92;99072.38;6198852;28;20506;-69
2022/12/06 13:40:59;;;;;;;96.70;35.67;;;;;;;-18.33;60.48;99072.03;6198045;28;20133;-67
2022/12/06 13:44:23;;;;;;;91.82;35.30;;;;;;;-18.35;60.81;99066.88;6198707;28;20412;-68
2022/12/06 13:47:27;;;;;;;76.20;29.33;;;;;;;-18.42;60.80;99057.09;6198144;28;20147;-68
2022/12/06 13:50:31;;;;;;;88.60;35.58;;;;;;;-18.52;60.70;99064.59;6198253;28;20424;-68
2022/12/06 13:53:35;;;;;;;84.15;35.63;;;;;;;-18.63;60.56;99062.06;6197648;28;20049;-68
2022/12/06 13:56:39;;;;;;;96.22;37.38;;;;;;;-18.68;60.41;99052.38;6198368;28;20129;-67
2022/12/06 13:59:41;;;;;;;113.20;40.33;;;;;;;-18.73;60.74;99058.72;6197498;28;20521;-67
2022/12/06 14:02:46;;;;;;;207.48;68.78;;;;;;;-18.78;60.90;99055.81;6198128;28;20046;-68
2022/12/06 14:06:08;;;;;;;254.65;76.25;;;;;;;-18.81;60.71;99060.56;6198391;28;20034;-68
2022/12/06 14:09:14;;;;;;;257.63;78.85;;;;;;;-18.86;60.96;99059.31;6198307;28;20042;-68
2022/12/06 14:12:24;;;;;;;213.75;67.32;;;;;;;-18.94;60.77;99045.22;6198500;28;20046;-67
2022/12/06 14:15:28;;;;;;;202.52;66.80;;;;;;;-18.99;60.48;99059.00;6198321;28;20048;-68
2022/12/06 14:18:33;;;;;;;206.95;68.78;;;;;;;-19.07;60.97;99065.91;6197731;28;20058;-68
2022/12/06 14:21:51;;;;;;;151.15;58.10;;;;;;;-19.18;60.52;99069.13;6198051;28;20038;-68
2022/12/06 14:24:58;;;;;;;;;;;;;;;-19.22;60.39;99074.63;6197986;28;20050;-67
2022/12/06 14:28:03;;;;;;;150.05;52.08;;;;;;;-19.31;60.98;99059.66;6198238;28;20355;-68
2022/12/06 14:31:29;;;;;;;153.05;51.90;;;;;;;-19.36;60.79;99071.84;6197267;28;20141;-68
2022/12/06 14:34:36;;;;;;;105.90;42.85;;;;;;;-19.33;60.87;99071.19;6197908;28;20482;-68
2022/12/06 14:37:38;;;;;;;106.53;41.05;;;;;;;-19.36;60.61;99066.81;6197511;28;20161;-68
2022/12/06 14:44:15;;;;;;;71.20;31.35;;;;;;;-19.45;60.54;99070.16;6196839;28;20058;-68
2022/12/06 14:47:21;;;;;;;78.78;32.80;;;;;;;-19.51;60.44;99066.34;6196820;28;20461;-69
2022/12/06 14:50:43;;;;;;;78.82;29.65;;;;;;;-19.59;60.37;99062.31;6196501;28;20410;-68
2022/12/06 14:53:44;;;;;;;65.53;27.23;;;;;;;-19.61;60.50;99063.81;6197534;28;20457;-68